sensor_id;sensor_type;location;lat;lon;timestamp;temperature;humidity
70214;DHT22;60138;55.808;37.078;2023-11-21T00:00:26;-8.24;64.10
70214;DHT22;60138;55.808;37.078;2023-11-21T00:02:52;-8.30;64.24
70214;DHT22;60138;55.808;37.078;2023-11-21T00:05:17;-8.36;64.78
70214;DHT22;60138;55.808;37.078;2023-11-21T00:07:43;-8.45;64.85
70214;DHT22;60138;55.808;37.078;2023-11-21T00:10:11;-8.53;65.21
70214;DHT22;60138;55.808;37.078;2023-11-21T00:12:38;-8.59;65.48
70214;DHT22;60138;55.808;37.078;2023-11-21T00:15:04;-8.66;65.51
70214;DHT22;60138;55.808;37.078;2023-11-21T00:17:31;-8.75;65.76
70214;DHT22;60138;55.808;37.078;2023-11-21T00:19:57;-8.84;66.06
70214;DHT22;60138;55.808;37.078;2023-11-21T00:22:23;-8.87;66.14
70214;DHT22;60138;55.808;37.078;2023-11-21T00:24:48;-8.89;66.50
70214;DHT22;60138;55.808;37.078;2023-11-21T00:27:14;-8.87;66.59
70214;DHT22;60138;55.808;37.078;2023-11-21T00:29:40;-8.85;66.51
70214;DHT22;60138;55.808;37.078;2023-11-21T00:32:06;-8.80;66.65
70214;DHT22;60138;55.808;37.078;2023-11-21T00:34:32;-8.78;66.49
70214;DHT22;60138;55.808;37.078;2023-11-21T00:36:58;-8.77;66.50
70214;DHT22;60138;55.808;37.078;2023-11-21T00:39:24;-8.74;66.69
70214;DHT22;60138;55.808;37.078;2023-11-21T00:41:51;-8.74;66.59
70214;DHT22;60138;55.808;37.078;2023-11-21T00:44:18;-8.78;66.46
70214;DHT22;60138;55.808;37.078;2023-11-21T00:46:43;-8.80;66.47
70214;DHT22;60138;55.808;37.078;2023-11-21T00:49:09;-8.81;66.58
70214;DHT22;60138;55.808;37.078;2023-11-21T00:51:35;-8.79;66.59
70214;DHT22;60138;55.808;37.078;2023-11-21T00:54:00;-8.79;66.29
70214;DHT22;60138;55.808;37.078;2023-11-21T00:56:26;-8.78;66.40
70214;DHT22;60138;55.808;37.078;2023-11-21T00:58:53;-8.84;66.21
70214;DHT22;60138;55.808;37.078;2023-11-21T01:01:19;-8.85;66.41
70214;DHT22;60138;55.808;37.078;2023-11-21T01:03:48;-8.94;66.43
70214;DHT22;60138;55.808;37.078;2023-11-21T01:06:15;-9.03;66.44
70214;DHT22;60138;55.808;37.078;2023-11-21T01:08:41;-9.10;66.62
70214;DHT22;60138;55.808;37.078;2023-11-21T01:11:08;-9.16;66.75
70214;DHT22;60138;55.808;37.078;2023-11-21T01:13:34;-9.20;66.88
70214;DHT22;60138;55.808;37.078;2023-11-21T01:16:00;-9.26;66.88
70214;DHT22;60138;55.808;37.078;2023-11-21T01:18:26;-9.27;66.85
70214;DHT22;60138;55.808;37.078;2023-11-21T01:20:52;-9.26;66.90
70214;DHT22;60138;55.808;37.078;2023-11-21T01:23:17;-9.33;67.05
70214;DHT22;60138;55.808;37.078;2023-11-21T01:25:43;-9.34;67.14
70214;DHT22;60138;55.808;37.078;2023-11-21T01:28:09;-9.42;67.14
70214;DHT22;60138;55.808;37.078;2023-11-21T01:30:35;-9.39;67.00
70214;DHT22;60138;55.808;37.078;2023-11-21T01:33:01;-9.40;67.07
70214;DHT22;60138;55.808;37.078;2023-11-21T01:35:26;-9.44;67.05
70214;DHT22;60138;55.808;37.078;2023-11-21T01:37:52;-9.46;67.22
70214;DHT22;60138;55.808;37.078;2023-11-21T01:40:18;-9.48;67.20
70214;DHT22;60138;55.808;37.078;2023-11-21T01:42:44;-9.48;67.22
70214;DHT22;60138;55.808;37.078;2023-11-21T01:45:10;-9.57;67.36
70214;DHT22;60138;55.808;37.078;2023-11-21T01:47:36;-9.57;67.26
70214;DHT22;60138;55.808;37.078;2023-11-21T01:50:03;-9.58;67.36
70214;DHT22;60138;55.808;37.078;2023-11-21T01:52:29;-9.56;67.19
70214;DHT22;60138;55.808;37.078;2023-11-21T01:54:57;-9.57;67.14
70214;DHT22;60138;55.808;37.078;2023-11-21T01:57:23;-9.61;67.36
70214;DHT22;60138;55.808;37.078;2023-11-21T01:59:50;-9.63;67.42
70214;DHT22;60138;55.808;37.078;2023-11-21T02:02:18;-9.64;67.45
70214;DHT22;60138;55.808;37.078;2023-11-21T02:04:45;-9.64;67.46
70214;DHT22;60138;55.808;37.078;2023-11-21T02:07:10;-9.70;67.69
70214;DHT22;60138;55.808;37.078;2023-11-21T02:09:36;-9.71;67.56
70214;DHT22;60138;55.808;37.078;2023-11-21T02:12:02;-9.70;67.48
70214;DHT22;60138;55.808;37.078;2023-11-21T02:14:29;-9.72;67.68
70214;DHT22;60138;55.808;37.078;2023-11-21T02:16:55;-9.75;67.82
70214;DHT22;60138;55.808;37.078;2023-11-21T02:19:22;-9.77;68.04
70214;DHT22;60138;55.808;37.078;2023-11-21T02:21:49;-9.78;68.36
70214;DHT22;60138;55.808;37.078;2023-11-21T02:24:15;-9.81;68.40
70214;DHT22;60138;55.808;37.078;2023-11-21T02:26:42;-9.87;68.92
70214;DHT22;60138;55.808;37.078;2023-11-21T02:29:08;-9.86;68.87
70214;DHT22;60138;55.808;37.078;2023-11-21T02:31:33;-9.88;69.10
70214;DHT22;60138;55.808;37.078;2023-11-21T02:34:00;-9.90;69.54
70214;DHT22;60138;55.808;37.078;2023-11-21T02:36:26;-9.87;69.83
70214;DHT22;60138;55.808;37.078;2023-11-21T02:38:52;-9.84;69.71
70214;DHT22;60138;55.808;37.078;2023-11-21T02:41:17;-9.82;69.71
70214;DHT22;60138;55.808;37.078;2023-11-21T02:43:43;-9.83;69.59
70214;DHT22;60138;55.808;37.078;2023-11-21T02:46:09;-9.86;69.95
70214;DHT22;60138;55.808;37.078;2023-11-21T02:48:35;-9.86;69.48
70214;DHT22;60138;55.808;37.078;2023-11-21T02:51:01;-9.88;70.33
70214;DHT22;60138;55.808;37.078;2023-11-21T02:53:26;-9.87;69.96
70214;DHT22;60138;55.808;37.078;2023-11-21T02:55:52;-9.90;70.48
70214;DHT22;60138;55.808;37.078;2023-11-21T02:58:18;-9.94;71.07
70214;DHT22;60138;55.808;37.078;2023-11-21T03:00:44;-9.94;71.33
70214;DHT22;60138;55.808;37.078;2023-11-21T03:03:10;-9.97;70.73
70214;DHT22;60138;55.808;37.078;2023-11-21T03:05:35;-10.01;71.00
70214;DHT22;60138;55.808;37.078;2023-11-21T03:08:01;-9.99;69.88
70214;DHT22;60138;55.808;37.078;2023-11-21T03:10:27;-9.97;69.87
70214;DHT22;60138;55.808;37.078;2023-11-21T03:12:53;-9.94;69.90
70214;DHT22;60138;55.808;37.078;2023-11-21T03:15:19;-9.93;70.83
70214;DHT22;60138;55.808;37.078;2023-11-21T03:17:44;-9.88;70.20
70214;DHT22;60138;55.808;37.078;2023-11-21T03:20:10;-9.83;69.90
70214;DHT22;60138;55.808;37.078;2023-11-21T03:22:37;-9.78;70.70
70214;DHT22;60138;55.808;37.078;2023-11-21T03:25:02;-9.74;70.49
70214;DHT22;60138;55.808;37.078;2023-11-21T03:27:30;-9.72;70.52
70214;DHT22;60138;55.808;37.078;2023-11-21T03:29:56;-9.69;70.53
70214;DHT22;60138;55.808;37.078;2023-11-21T03:32:21;-9.61;70.24
70214;DHT22;60138;55.808;37.078;2023-11-21T03:34:58;-9.57;70.00
70214;DHT22;60138;55.808;37.078;2023-11-21T03:37:24;-9.53;69.86
70214;DHT22;60138;55.808;37.078;2023-11-21T03:39:50;-9.46;69.76
70214;DHT22;60138;55.808;37.078;2023-11-21T03:42:16;-9.40;69.58
70214;DHT22;60138;55.808;37.078;2023-11-21T03:44:41;-9.36;69.24
70214;DHT22;60138;55.808;37.078;2023-11-21T03:47:07;-9.32;69.13
70214;DHT22;60138;55.808;37.078;2023-11-21T03:49:33;-9.29;68.97
70214;DHT22;60138;55.808;37.078;2023-11-21T03:51:59;-9.25;68.68
70214;DHT22;60138;55.808;37.078;2023-11-21T03:54:24;-9.23;68.26
70214;DHT22;60138;55.808;37.078;2023-11-21T03:56:50;-9.20;68.23
70214;DHT22;60138;55.808;37.078;2023-11-21T03:59:16;-9.18;68.38
70214;DHT22;60138;55.808;37.078;2023-11-21T04:01:42;-9.18;68.22
70214;DHT22;60138;55.808;37.078;2023-11-21T04:04:07;-9.18;68.30
70214;DHT22;60138;55.808;37.078;2023-11-21T04:06:33;-9.17;68.20
70214;DHT22;60138;55.808;37.078;2023-11-21T04:08:59;-9.22;67.84
70214;DHT22;60138;55.808;37.078;2023-11-21T04:11:24;-9.27;67.96
70214;DHT22;60138;55.808;37.078;2023-11-21T04:13:50;-9.32;68.09
70214;DHT22;60138;55.808;37.078;2023-11-21T04:16:16;-9.39;68.17
70214;DHT22;60138;55.808;37.078;2023-11-21T04:18:42;-9.41;68.12
70214;DHT22;60138;55.808;37.078;2023-11-21T04:21:08;-9.47;68.32
70214;DHT22;60138;55.808;37.078;2023-11-21T04:23:34;-9.55;68.44
70214;DHT22;60138;55.808;37.078;2023-11-21T04:26:00;-9.61;68.53
70214;DHT22;60138;55.808;37.078;2023-11-21T04:28:26;-9.63;68.39
70214;DHT22;60138;55.808;37.078;2023-11-21T04:30:52;-9.69;68.69
70214;DHT22;60138;55.808;37.078;2023-11-21T04:33:17;-9.70;68.75
70214;DHT22;60138;55.808;37.078;2023-11-21T04:35:43;-9.72;68.77
70214;DHT22;60138;55.808;37.078;2023-11-21T04:38:09;-9.76;68.91
70214;DHT22;60138;55.808;37.078;2023-11-21T04:40:35;-9.82;69.14
70214;DHT22;60138;55.808;37.078;2023-11-21T04:43:00;-9.86;69.61
70214;DHT22;60138;55.808;37.078;2023-11-21T04:45:26;-9.90;69.99
70214;DHT22;60138;55.808;37.078;2023-11-21T04:47:52;-9.91;69.84
70214;DHT22;60138;55.808;37.078;2023-11-21T04:50:18;-9.92;69.76
70214;DHT22;60138;55.808;37.078;2023-11-21T04:52:43;-9.93;69.52
70214;DHT22;60138;55.808;37.078;2023-11-21T04:55:09;-9.99;70.23
70214;DHT22;60138;55.808;37.078;2023-11-21T04:57:35;-9.98;69.99
70214;DHT22;60138;55.808;37.078;2023-11-21T05:00:01;-9.97;69.71
70214;DHT22;60138;55.808;37.078;2023-11-21T05:02:30;-10.02;70.52
70214;DHT22;60138;55.808;37.078;2023-11-21T05:04:56;-10.02;70.33
70214;DHT22;60138;55.808;37.078;2023-11-21T05:07:21;-10.04;70.28
70214;DHT22;60138;55.808;37.078;2023-11-21T05:09:47;-10.06;70.57
70214;DHT22;60138;55.808;37.078;2023-11-21T05:12:13;-10.11;71.01
70214;DHT22;60138;55.808;37.078;2023-11-21T05:14:39;-10.11;70.83
70214;DHT22;60138;55.808;37.078;2023-11-21T05:17:04;-10.11;70.57
70214;DHT22;60138;55.808;37.078;2023-11-21T05:19:30;-10.11;70.67
70214;DHT22;60138;55.808;37.078;2023-11-21T05:21:56;-10.10;70.62
70214;DHT22;60138;55.808;37.078;2023-11-21T05:24:22;-10.10;70.33
70214;DHT22;60138;55.808;37.078;2023-11-21T05:26:47;-10.08;70.15
70214;DHT22;60138;55.808;37.078;2023-11-21T05:29:13;-10.12;70.52
70214;DHT22;60138;55.808;37.078;2023-11-21T05:31:39;-10.13;70.54
70214;DHT22;60138;55.808;37.078;2023-11-21T05:34:04;-10.17;71.07
70214;DHT22;60138;55.808;37.078;2023-11-21T05:36:30;-10.14;70.83
70214;DHT22;60138;55.808;37.078;2023-11-21T05:38:56;-10.15;71.60
70214;DHT22;60138;55.808;37.078;2023-11-21T05:41:22;-10.11;71.23
70214;DHT22;60138;55.808;37.078;2023-11-21T05:43:48;-10.06;71.41
70214;DHT22;60138;55.808;37.078;2023-11-21T05:46:13;-10.02;71.26
70214;DHT22;60138;55.808;37.078;2023-11-21T05:48:39;-9.96;70.74
70214;DHT22;60138;55.808;37.078;2023-11-21T05:51:06;-9.98;71.14
70214;DHT22;60138;55.808;37.078;2023-11-21T05:53:31;-9.92;70.90
70214;DHT22;60138;55.808;37.078;2023-11-21T05:55:58;-9.85;70.64
70214;DHT22;60138;55.808;37.078;2023-11-21T05:58:24;-9.76;70.02
70214;DHT22;60138;55.808;37.078;2023-11-21T06:00:50;-9.76;70.49
70214;DHT22;60138;55.808;37.078;2023-11-21T06:03:16;-9.74;70.20
70214;DHT22;60138;55.808;37.078;2023-11-21T06:05:41;-9.71;70.05
70214;DHT22;60138;55.808;37.078;2023-11-21T06:08:07;-9.69;70.08
70214;DHT22;60138;55.808;37.078;2023-11-21T06:10:33;-9.63;70.03
70214;DHT22;60138;55.808;37.078;2023-11-21T06:12:59;-9.56;70.02
70214;DHT22;60138;55.808;37.078;2023-11-21T06:15:24;-9.53;69.71
70214;DHT22;60138;55.808;37.078;2023-11-21T06:17:51;-9.52;69.77
70214;DHT22;60138;55.808;37.078;2023-11-21T06:20:17;-9.46;69.44
70214;DHT22;60138;55.808;37.078;2023-11-21T06:22:43;-9.44;69.42
70214;DHT22;60138;55.808;37.078;2023-11-21T06:25:09;-9.44;69.30
70214;DHT22;60138;55.808;37.078;2023-11-21T06:27:38;-9.46;69.40
70214;DHT22;60138;55.808;37.078;2023-11-21T06:30:04;-9.51;69.49
70214;DHT22;60138;55.808;37.078;2023-11-21T06:32:31;-9.54;69.67
70214;DHT22;60138;55.808;37.078;2023-11-21T06:34:57;-9.53;69.89
70214;DHT22;60138;55.808;37.078;2023-11-21T06:37:22;-9.51;69.86
70214;DHT22;60138;55.808;37.078;2023-11-21T06:39:49;-9.51;69.77
70214;DHT22;60138;55.808;37.078;2023-11-21T06:42:14;-9.55;69.96
70214;DHT22;60138;55.808;37.078;2023-11-21T06:44:40;-9.56;70.15
70214;DHT22;60138;55.808;37.078;2023-11-21T06:47:06;-9.52;70.04
70214;DHT22;60138;55.808;37.078;2023-11-21T06:49:32;-9.49;69.98
70214;DHT22;60138;55.808;37.078;2023-11-21T06:51:58;-9.46;70.03
70214;DHT22;60138;55.808;37.078;2023-11-21T06:54:24;-9.41;70.22
70214;DHT22;60138;55.808;37.078;2023-11-21T06:56:50;-9.37;70.29
70214;DHT22;60138;55.808;37.078;2023-11-21T06:59:16;-9.30;70.29
70214;DHT22;60138;55.808;37.078;2023-11-21T07:01:41;-9.27;69.90
70214;DHT22;60138;55.808;37.078;2023-11-21T07:04:07;-9.20;69.83
70214;DHT22;60138;55.808;37.078;2023-11-21T07:06:33;-9.17;69.65
70214;DHT22;60138;55.808;37.078;2023-11-21T07:08:59;-9.08;69.58
70214;DHT22;60138;55.808;37.078;2023-11-21T07:11:24;-9.03;69.71
70214;DHT22;60138;55.808;37.078;2023-11-21T07:13:50;-9.02;69.44
70214;DHT22;60138;55.808;37.078;2023-11-21T07:16:16;-8.96;69.53
70214;DHT22;60138;55.808;37.078;2023-11-21T07:18:42;-8.90;69.53
70214;DHT22;60138;55.808;37.078;2023-11-21T07:21:07;-8.85;69.40
70214;DHT22;60138;55.808;37.078;2023-11-21T07:23:33;-8.83;69.39
70214;DHT22;60138;55.808;37.078;2023-11-21T07:25:59;-8.88;69.55
70214;DHT22;60138;55.808;37.078;2023-11-21T07:28:25;-8.89;69.72
70214;DHT22;60138;55.808;37.078;2023-11-21T07:30:50;-8.93;69.71
70214;DHT22;60138;55.808;37.078;2023-11-21T07:33:16;-8.96;69.84
70214;DHT22;60138;55.808;37.078;2023-11-21T07:35:42;-8.99;70.52
70214;DHT22;60138;55.808;37.078;2023-11-21T07:38:08;-8.99;70.22
70214;DHT22;60138;55.808;37.078;2023-11-21T07:40:34;-8.95;70.26
70214;DHT22;60138;55.808;37.078;2023-11-21T07:42:59;-8.94;70.23
70214;DHT22;60138;55.808;37.078;2023-11-21T07:45:27;-8.86;69.74
70214;DHT22;60138;55.808;37.078;2023-11-21T07:47:54;-8.82;69.37
70214;DHT22;60138;55.808;37.078;2023-11-21T07:50:20;-8.85;69.69
70214;DHT22;60138;55.808;37.078;2023-11-21T07:52:46;-8.84;70.33
70214;DHT22;60138;55.808;37.078;2023-11-21T07:55:11;-8.81;69.71
70214;DHT22;60138;55.808;37.078;2023-11-21T07:57:37;-8.83;70.11
70214;DHT22;60138;55.808;37.078;2023-11-21T08:00:05;-8.79;70.44
70214;DHT22;60138;55.808;37.078;2023-11-21T08:02:41;-8.79;69.90
70214;DHT22;60138;55.808;37.078;2023-11-21T08:05:07;-8.73;70.25
70214;DHT22;60138;55.808;37.078;2023-11-21T08:07:33;-8.69;70.21
70214;DHT22;60138;55.808;37.078;2023-11-21T08:09:59;-8.59;70.48
70214;DHT22;60138;55.808;37.078;2023-11-21T08:12:25;-8.53;70.41
70214;DHT22;60138;55.808;37.078;2023-11-21T08:14:50;-8.49;69.86
70214;DHT22;60138;55.808;37.078;2023-11-21T08:17:16;-8.38;69.67
70214;DHT22;60138;55.808;37.078;2023-11-21T08:19:42;-8.30;69.13
70214;DHT22;60138;55.808;37.078;2023-11-21T08:22:07;-8.23;70.35
70214;DHT22;60138;55.808;37.078;2023-11-21T08:24:33;-8.07;69.87
70214;DHT22;60138;55.808;37.078;2023-11-21T08:26:59;-7.91;70.21
70214;DHT22;60138;55.808;37.078;2023-11-21T08:29:25;-7.71;67.23
70214;DHT22;60138;55.808;37.078;2023-11-21T08:31:51;-7.47;67.09
70214;DHT22;60138;55.808;37.078;2023-11-21T08:34:16;-7.25;67.91
70214;DHT22;60138;55.808;37.078;2023-11-21T08:36:43;-7.17;67.89
70214;DHT22;60138;55.808;37.078;2023-11-21T08:39:09;-7.11;67.11
70214;DHT22;60138;55.808;37.078;2023-11-21T08:41:34;-7.06;67.73
70214;DHT22;60138;55.808;37.078;2023-11-21T08:44:00;-7.03;67.46
70214;DHT22;60138;55.808;37.078;2023-11-21T08:46:26;-7.08;66.17
70214;DHT22;60138;55.808;37.078;2023-11-21T08:48:52;-7.24;64.72
70214;DHT22;60138;55.808;37.078;2023-11-21T08:51:17;-7.17;67.16
70214;DHT22;60138;55.808;37.078;2023-11-21T08:53:43;-7.11;65.81
70214;DHT22;60138;55.808;37.078;2023-11-21T08:56:13;-7.11;64.47
70214;DHT22;60138;55.808;37.078;2023-11-21T08:58:39;-7.07;65.01
70214;DHT22;60138;55.808;37.078;2023-11-21T09:01:05;-7.07;64.48
70214;DHT22;60138;55.808;37.078;2023-11-21T09:03:30;-6.98;65.34
70214;DHT22;60138;55.808;37.078;2023-11-21T09:05:56;-6.95;64.42
70214;DHT22;60138;55.808;37.078;2023-11-21T09:08:22;-6.90;62.35
70214;DHT22;60138;55.808;37.078;2023-11-21T09:10:49;-6.86;62.66
70214;DHT22;60138;55.808;37.078;2023-11-21T09:13:15;-6.81;62.72
70214;DHT22;60138;55.808;37.078;2023-11-21T09:15:41;-6.89;63.22
70214;DHT22;60138;55.808;37.078;2023-11-21T09:18:06;-6.86;62.32
70214;DHT22;60138;55.808;37.078;2023-11-21T09:20:32;-6.85;61.37
70214;DHT22;60138;55.808;37.078;2023-11-21T09:22:58;-6.81;63.06
70214;DHT22;60138;55.808;37.078;2023-11-21T09:25:24;-6.79;61.96
70214;DHT22;60138;55.808;37.078;2023-11-21T09:27:49;-6.73;61.98
70214;DHT22;60138;55.808;37.078;2023-11-21T09:30:15;-6.74;60.47
70214;DHT22;60138;55.808;37.078;2023-11-21T09:32:41;-6.72;63.33
70214;DHT22;60138;55.808;37.078;2023-11-21T09:35:07;-6.75;61.12
70214;DHT22;60138;55.808;37.078;2023-11-21T09:37:33;-6.75;58.83
70214;DHT22;60138;55.808;37.078;2023-11-21T09:39:58;-6.70;60.49
70214;DHT22;60138;55.808;37.078;2023-11-21T09:42:36;-6.66;59.48
70214;DHT22;60138;55.808;37.078;2023-11-21T09:45:17;-6.60;60.14
70214;DHT22;60138;55.808;37.078;2023-11-21T09:47:44;-6.60;59.93
70214;DHT22;60138;55.808;37.078;2023-11-21T09:50:11;-6.57;59.44
70214;DHT22;60138;55.808;37.078;2023-11-21T09:55:29;-6.60;63.66
70214;DHT22;60138;55.808;37.078;2023-11-21T09:57:56;-6.67;64.54
70214;DHT22;60138;55.808;37.078;2023-11-21T10:00:22;-6.59;66.06
70214;DHT22;60138;55.808;37.078;2023-11-21T10:02:48;-6.59;63.15
70214;DHT22;60138;55.808;37.078;2023-11-21T10:05:14;-6.65;62.44
70214;DHT22;60138;55.808;37.078;2023-11-21T10:07:40;-6.66;61.34
70214;DHT22;60138;55.808;37.078;2023-11-21T10:10:07;-6.67;62.44
70214;DHT22;60138;55.808;37.078;2023-11-21T10:12:35;-6.63;61.42
70214;DHT22;60138;55.808;37.078;2023-11-21T10:15:02;-6.60;59.24
70214;DHT22;60138;55.808;37.078;2023-11-21T10:17:31;-6.60;61.75
70214;DHT22;60138;55.808;37.078;2023-11-21T10:20:01;-6.56;62.97
70214;DHT22;60138;55.808;37.078;2023-11-21T10:22:28;-6.58;58.39
70214;DHT22;60138;55.808;37.078;2023-11-21T10:24:54;-6.57;60.08
70214;DHT22;60138;55.808;37.078;2023-11-21T10:27:19;-6.51;62.22
70214;DHT22;60138;55.808;37.078;2023-11-21T10:29:45;-6.62;58.70
70214;DHT22;60138;55.808;37.078;2023-11-21T10:32:12;-6.68;59.00
70214;DHT22;60138;55.808;37.078;2023-11-21T10:34:38;-6.61;59.85
70214;DHT22;60138;55.808;37.078;2023-11-21T10:37:13;-6.56;59.77
70214;DHT22;60138;55.808;37.078;2023-11-21T10:39:39;-6.53;58.20
70214;DHT22;60138;55.808;37.078;2023-11-21T10:42:08;-6.45;61.34
70214;DHT22;60138;55.808;37.078;2023-11-21T10:44:34;-6.30;61.09
70214;DHT22;60138;55.808;37.078;2023-11-21T10:47:00;-6.38;61.30
70214;DHT22;60138;55.808;37.078;2023-11-21T10:49:26;-6.43;63.60
70214;DHT22;60138;55.808;37.078;2023-11-21T10:51:55;-6.59;59.35
70214;DHT22;60138;55.808;37.078;2023-11-21T10:54:25;-6.58;61.26
70214;DHT22;60138;55.808;37.078;2023-11-21T10:57:00;-6.46;62.95
70214;DHT22;60138;55.808;37.078;2023-11-21T10:59:30;-6.43;62.08
70214;DHT22;60138;55.808;37.078;2023-11-21T11:01:58;-6.44;59.96
70214;DHT22;60138;55.808;37.078;2023-11-21T11:04:27;-6.39;63.21
70214;DHT22;60138;55.808;37.078;2023-11-21T11:07:02;-6.57;59.05
70214;DHT22;60138;55.808;37.078;2023-11-21T11:09:29;-6.61;61.02
70214;DHT22;60138;55.808;37.078;2023-11-21T11:11:56;-6.60;61.02
70214;DHT22;60138;55.808;37.078;2023-11-21T11:14:22;-6.62;61.05
70214;DHT22;60138;55.808;37.078;2023-11-21T11:16:49;-6.80;59.08
70214;DHT22;60138;55.808;37.078;2023-11-21T11:19:15;-6.81;60.51
70214;DHT22;60138;55.808;37.078;2023-11-21T11:22:15;-6.75;61.61
70214;DHT22;60138;55.808;37.078;2023-11-21T11:32:59;-6.66;61.82
70214;DHT22;60138;55.808;37.078;2023-11-21T11:36:17;-6.63;62.70
70214;DHT22;60138;55.808;37.078;2023-11-21T11:38:45;-6.61;61.89
70214;DHT22;60138;55.808;37.078;2023-11-21T11:41:11;-6.62;61.69
70214;DHT22;60138;55.808;37.078;2023-11-21T11:43:37;-6.73;60.94
70214;DHT22;60138;55.808;37.078;2023-11-21T11:46:03;-6.74;61.43
70214;DHT22;60138;55.808;37.078;2023-11-21T11:48:29;-6.78;60.09
70214;DHT22;60138;55.808;37.078;2023-11-21T11:51:05;-6.80;61.44
70214;DHT22;60138;55.808;37.078;2023-11-21T11:53:43;-6.82;61.40
70214;DHT22;60138;55.808;37.078;2023-11-21T11:56:29;-6.75;62.59
70214;DHT22;60138;55.808;37.078;2023-11-21T11:58:56;-6.65;62.52
70214;DHT22;60138;55.808;37.078;2023-11-21T12:01:24;-6.60;60.76
70214;DHT22;60138;55.808;37.078;2023-11-21T12:06:38;-6.57;60.25
70214;DHT22;60138;55.808;37.078;2023-11-21T12:09:04;-6.57;59.80
70214;DHT22;60138;55.808;37.078;2023-11-21T12:11:33;-6.56;60.58
70214;DHT22;60138;55.808;37.078;2023-11-21T12:13:58;-6.60;60.86
70214;DHT22;60138;55.808;37.078;2023-11-21T12:16:27;-6.68;61.39
70214;DHT22;60138;55.808;37.078;2023-11-21T12:18:53;-6.71;61.41
70214;DHT22;60138;55.808;37.078;2023-11-21T12:21:20;-6.76;60.70
70214;DHT22;60138;55.808;37.078;2023-11-21T12:23:46;-6.82;59.78
70214;DHT22;60138;55.808;37.078;2023-11-21T12:26:11;-6.82;61.03
70214;DHT22;60138;55.808;37.078;2023-11-21T12:28:37;-6.87;60.09
70214;DHT22;60138;55.808;37.078;2023-11-21T12:31:03;-6.95;58.15
70214;DHT22;60138;55.808;37.078;2023-11-21T12:33:29;-7.11;57.23
70214;DHT22;60138;55.808;37.078;2023-11-21T12:35:54;-7.06;58.83
70214;DHT22;60138;55.808;37.078;2023-11-21T12:38:20;-7.07;58.13
70214;DHT22;60138;55.808;37.078;2023-11-21T12:40:46;-7.03;59.41
70214;DHT22;60138;55.808;37.078;2023-11-21T12:43:11;-7.03;59.75
70214;DHT22;60138;55.808;37.078;2023-11-21T12:45:37;-7.19;58.70
70214;DHT22;60138;55.808;37.078;2023-11-21T12:48:05;-7.17;59.25
70214;DHT22;60138;55.808;37.078;2023-11-21T12:50:31;-7.16;60.52
70214;DHT22;60138;55.808;37.078;2023-11-21T12:53:03;-7.22;59.25
70214;DHT22;60138;55.808;37.078;2023-11-21T12:55:32;-7.21;59.71
70214;DHT22;60138;55.808;37.078;2023-11-21T12:58:01;-7.22;60.45
70214;DHT22;60138;55.808;37.078;2023-11-21T13:00:31;-7.32;58.54
70214;DHT22;60138;55.808;37.078;2023-11-21T13:02:58;-7.26;59.27
70214;DHT22;60138;55.808;37.078;2023-11-21T13:05:29;-7.18;61.46
70214;DHT22;60138;55.808;37.078;2023-11-21T13:08:05;-7.25;59.16
70214;DHT22;60138;55.808;37.078;2023-11-21T13:10:32;-7.30;58.21
70214;DHT22;60138;55.808;37.078;2023-11-21T13:12:58;-7.26;60.17
70214;DHT22;60138;55.808;37.078;2023-11-21T13:15:25;-7.33;58.81
70214;DHT22;60138;55.808;37.078;2023-11-21T13:17:51;-7.34;58.86
70214;DHT22;60138;55.808;37.078;2023-11-21T13:20:17;-7.36;59.48
70214;DHT22;60138;55.808;37.078;2023-11-21T13:22:53;-7.34;60.39
70214;DHT22;60138;55.808;37.078;2023-11-21T13:25:20;-7.32;59.93
70214;DHT22;60138;55.808;37.078;2023-11-21T13:27:46;-7.35;59.61
70214;DHT22;60138;55.808;37.078;2023-11-21T13:30:14;-7.31;60.25
70214;DHT22;60138;55.808;37.078;2023-11-21T13:32:40;-7.38;60.07
70214;DHT22;60138;55.808;37.078;2023-11-21T13:35:06;-7.38;60.32
70214;DHT22;60138;55.808;37.078;2023-11-21T13:37:31;-7.35;60.47
70214;DHT22;60138;55.808;37.078;2023-11-21T13:39:57;-7.31;60.85
70214;DHT22;60138;55.808;37.078;2023-11-21T13:42:23;-7.34;59.82
70214;DHT22;60138;55.808;37.078;2023-11-21T13:44:48;-7.34;60.00
70214;DHT22;60138;55.808;37.078;2023-11-21T13:47:14;-7.36;60.00
70214;DHT22;60138;55.808;37.078;2023-11-21T13:49:40;-7.41;59.76
70214;DHT22;60138;55.808;37.078;2023-11-21T13:52:06;-7.38;61.05
70214;DHT22;60138;55.808;37.078;2023-11-21T13:54:32;-7.36;60.06
70214;DHT22;60138;55.808;37.078;2023-11-21T13:56:57;-7.45;59.56
70214;DHT22;60138;55.808;37.078;2023-11-21T13:59:23;-7.38;62.01
70214;DHT22;60138;55.808;37.078;2023-11-21T14:01:50;-7.47;59.39
70214;DHT22;60138;55.808;37.078;2023-11-21T14:04:15;-7.45;59.73
70214;DHT22;60138;55.808;37.078;2023-11-21T14:06:43;-7.45;59.82
70214;DHT22;60138;55.808;37.078;2023-11-21T14:09:09;-7.44;59.71
70214;DHT22;60138;55.808;37.078;2023-11-21T14:11:34;-7.49;58.88
70214;DHT22;60138;55.808;37.078;2023-11-21T14:14:00;-7.47;59.72
70214;DHT22;60138;55.808;37.078;2023-11-21T14:16:26;-7.45;59.74
70214;DHT22;60138;55.808;37.078;2023-11-21T14:18:51;-7.42;60.35
70214;DHT22;60138;55.808;37.078;2023-11-21T14:21:18;-7.46;59.25
70214;DHT22;60138;55.808;37.078;2023-11-21T14:23:44;-7.47;60.02
70214;DHT22;60138;55.808;37.078;2023-11-21T14:26:09;-7.55;58.80
70214;DHT22;60138;55.808;37.078;2023-11-21T14:28:35;-7.54;60.05
70214;DHT22;60138;55.808;37.078;2023-11-21T14:31:01;-7.51;59.27
70214;DHT22;60138;55.808;37.078;2023-11-21T14:33:27;-7.51;58.77
70214;DHT22;60138;55.808;37.078;2023-11-21T14:35:52;-7.50;58.87
70214;DHT22;60138;55.808;37.078;2023-11-21T14:38:19;-7.52;59.22
70214;DHT22;60138;55.808;37.078;2023-11-21T14:40:45;-7.48;59.54
70214;DHT22;60138;55.808;37.078;2023-11-21T14:43:10;-7.49;58.76
70214;DHT22;60138;55.808;37.078;2023-11-21T14:45:36;-7.42;60.68
70214;DHT22;60138;55.808;37.078;2023-11-21T14:48:03;-7.47;58.41
70214;DHT22;60138;55.808;37.078;2023-11-21T14:50:28;-7.44;59.90
70214;DHT22;60138;55.808;37.078;2023-11-21T14:52:54;-7.47;60.34
70214;DHT22;60138;55.808;37.078;2023-11-21T14:55:20;-7.47;60.40
70214;DHT22;60138;55.808;37.078;2023-11-21T14:57:46;-7.47;60.47
70214;DHT22;60138;55.808;37.078;2023-11-21T15:00:12;-7.45;59.58
70214;DHT22;60138;55.808;37.078;2023-11-21T15:02:38;-7.50;58.54
70214;DHT22;60138;55.808;37.078;2023-11-21T15:05:04;-7.49;58.77
70214;DHT22;60138;55.808;37.078;2023-11-21T15:07:30;-7.49;59.03
70214;DHT22;60138;55.808;37.078;2023-11-21T15:09:55;-7.48;58.41
70214;DHT22;60138;55.808;37.078;2023-11-21T15:12:21;-7.49;58.62
70214;DHT22;60138;55.808;37.078;2023-11-21T15:14:51;-7.51;57.61
70214;DHT22;60138;55.808;37.078;2023-11-21T15:17:17;-7.53;58.45
70214;DHT22;60138;55.808;37.078;2023-11-21T15:19:43;-7.52;58.87
70214;DHT22;60138;55.808;37.078;2023-11-21T15:22:09;-7.51;59.54
70214;DHT22;60138;55.808;37.078;2023-11-21T15:24:34;-7.47;59.64